sensor_id;sensor_type;location;lat;lon;timestamp;pressure;altitude;pressure_sealevel;temperature;humidity
18819;BME280;9537;45.594;9.294;2024-03-08T00:00:12;99588.66;;;9.08;84.89
18819;BME280;9537;45.594;9.294;2024-03-08T00:01:13;99593.94;;;9.08;85.24
18819;BME280;9537;45.594;9.294;2024-03-08T00:02:16;99590.28;;;9.09;85.39
18819;BME280;9537;45.594;9.294;2024-03-08T00:03:17;99588.47;;;9.10;84.94
18819;BME280;9537;45.594;9.294;2024-03-08T00:04:19;99595.75;;;9.08;85.54
18819;BME280;9537;45.594;9.294;2024-03-08T00:05:20;99599.34;;;9.07;85.53
18819;BME280;9537;45.594;9.294;2024-03-08T00:06:21;99590.63;;;9.06;85.74
18819;BME280;9537;45.594;9.294;2024-03-08T00:07:22;99591.63;;;9.05;86.11
18819;BME280;9537;45.594;9.294;2024-03-08T00:08:24;99590.63;;;9.06;86.31
18819;BME280;9537;45.594;9.294;2024-03-08T00:09:26;99594.06;;;9.07;86.10
18819;BME280;9537;45.594;9.294;2024-03-08T00:10:28;99594.94;;;9.07;85.96
18819;BME280;9537;45.594;9.294;2024-03-08T00:11:29;99595.88;;;9.06;86.16
18819;BME280;9537;45.594;9.294;2024-03-08T00:12:31;99601.97;;;9.07;85.92
18819;BME280;9537;45.594;9.294;2024-03-08T00:13:32;99589.47;;;9.09;86.07
18819;BME280;9537;45.594;9.294;2024-03-08T00:14:35;99595.56;;;9.09;86.21
18819;BME280;9537;45.594;9.294;2024-03-08T00:15:37;99595.22;;;9.12;86.27
18819;BME280;9537;45.594;9.294;2024-03-08T00:16:39;99595.06;;;9.14;85.97
18819;BME280;9537;45.594;9.294;2024-03-08T00:17:39;99600.34;;;9.14;86.30
18819;BME280;9537;45.594;9.294;2024-03-08T00:18:41;99598.69;;;9.13;86.22
18819;BME280;9537;45.594;9.294;2024-03-08T00:19:42;99601.31;;;9.13;86.26
18819;BME280;9537;45.594;9.294;2024-03-08T00:20:44;99601.31;;;9.13;86.07
18819;BME280;9537;45.594;9.294;2024-03-08T00:21:45;99595.06;;;9.14;86.53
18819;BME280;9537;45.594;9.294;2024-03-08T00:22:46;99603.94;;;9.13;86.59
18819;BME280;9537;45.594;9.294;2024-03-08T00:23:47;99597.72;;;9.14;86.36
18819;BME280;9537;45.594;9.294;2024-03-08T00:24:50;99602.97;;;9.14;86.40
18819;BME280;9537;45.594;9.294;2024-03-08T00:25:51;99614.19;;;9.16;86.47
18819;BME280;9537;45.594;9.294;2024-03-08T00:26:52;99601.97;;;9.15;86.67
18819;BME280;9537;45.594;9.294;2024-03-08T00:27:54;99611.56;;;9.16;86.48
18819;BME280;9537;45.594;9.294;2024-03-08T00:28:56;99603.66;;;9.16;86.60
18819;BME280;9537;45.594;9.294;2024-03-08T00:29:58;99605.28;;;9.17;86.75
18819;BME280;9537;45.594;9.294;2024-03-08T00:30:59;99602.66;;;9.17;86.93
18819;BME280;9537;45.594;9.294;2024-03-08T00:32:01;99600.84;;;9.17;86.58
18819;BME280;9537;45.594;9.294;2024-03-08T00:33:01;99604.28;;;9.18;86.61
18819;BME280;9537;45.594;9.294;2024-03-08T00:34:03;99602.47;;;9.18;86.65
18819;BME280;9537;45.594;9.294;2024-03-08T00:35:04;99609.56;;;9.18;86.83
18819;BME280;9537;45.594;9.294;2024-03-08T00:36:07;99606.78;;;9.19;87.08
18819;BME280;9537;45.594;9.294;2024-03-08T00:37:09;99605.78;;;9.20;86.81
18819;BME280;9537;45.594;9.294;2024-03-08T00:38:10;99606.25;;;9.24;86.83
18819;BME280;9537;45.594;9.294;2024-03-08T00:39:13;99604.47;;;9.24;86.89
18819;BME280;9537;45.594;9.294;2024-03-08T00:40:15;99607.91;;;9.25;86.53
18819;BME280;9537;45.594;9.294;2024-03-08T00:41:17;99607.75;;;9.27;86.69
18819;BME280;9537;45.594;9.294;2024-03-08T00:42:19;99607.91;;;9.25;86.91
18819;BME280;9537;45.594;9.294;2024-03-08T00:43:21;99613.00;;;9.27;86.75
18819;BME280;9537;45.594;9.294;2024-03-08T00:44:22;99610.22;;;9.28;86.93
18819;BME280;9537;45.594;9.294;2024-03-08T00:45:24;99612.69;;;9.30;87.18
18819;BME280;9537;45.594;9.294;2024-03-08T00:46:25;99601.00;;;9.32;87.03
18819;BME280;9537;45.594;9.294;2024-03-08T00:47:29;99605.28;;;9.33;87.10
18819;BME280;9537;45.594;9.294;2024-03-08T00:48:29;99608.75;;;9.34;86.98
18819;BME280;9537;45.594;9.294;2024-03-08T00:49:31;99604.28;;;9.34;86.88
18819;BME280;9537;45.594;9.294;2024-03-08T00:50:32;99602.47;;;9.35;87.11
18819;BME280;9537;45.594;9.294;2024-03-08T00:51:34;99603.13;;;9.37;87.14
18819;BME280;9537;45.594;9.294;2024-03-08T00:52:35;99596.88;;;9.38;87.28
18819;BME280;9537;45.594;9.294;2024-03-08T00:53:36;99601.97;;;9.39;87.16
18819;BME280;9537;45.594;9.294;2024-03-08T00:54:37;99605.28;;;9.41;87.20
18819;BME280;9537;45.594;9.294;2024-03-08T00:55:39;99601.66;;;9.42;87.26
18819;BME280;9537;45.594;9.294;2024-03-08T00:56:41;99601.47;;;9.44;87.26
18819;BME280;9537;45.594;9.294;2024-03-08T00:57:42;99600.50;;;9.45;87.00
18819;BME280;9537;45.594;9.294;2024-03-08T00:58:43;99601.31;;;9.45;87.01
18819;BME280;9537;45.594;9.294;2024-03-08T00:59:44;99604.44;;;9.49;86.73
18819;BME280;9537;45.594;9.294;2024-03-08T01:00:46;99603.47;;;9.50;86.62
18819;BME280;9537;45.594;9.294;2024-03-08T01:01:46;99603.28;;;9.52;86.55
18819;BME280;9537;45.594;9.294;2024-03-08T01:02:48;99602.28;;;9.53;86.44
18819;BME280;9537;45.594;9.294;2024-03-08T01:03:49;99603.28;;;9.52;86.25
18819;BME280;9537;45.594;9.294;2024-03-08T01:04:50;99601.47;;;9.52;86.17
18819;BME280;9537;45.594;9.294;2024-03-08T01:05:51;99601.31;;;9.54;86.13
18819;BME280;9537;45.594;9.294;2024-03-08T01:06:53;99600.31;;;9.55;85.86
18819;BME280;9537;45.594;9.294;2024-03-08T01:07:53;99597.66;;;9.55;85.73
18819;BME280;9537;45.594;9.294;2024-03-08T01:08:55;99598.34;;;9.57;85.62
18819;BME280;9537;45.594;9.294;2024-03-08T01:09:56;99591.25;;;9.57;85.38
18819;BME280;9537;45.594;9.294;2024-03-08T01:10:59;99597.19;;;9.59;85.20
18819;BME280;9537;45.594;9.294;2024-03-08T01:11:59;99595.34;;;9.60;85.51
18819;BME280;9537;45.594;9.294;2024-03-08T01:13:01;99590.91;;;9.60;84.99
18819;BME280;9537;45.594;9.294;2024-03-08T01:14:02;99595.19;;;9.61;85.06
18819;BME280;9537;45.594;9.294;2024-03-08T01:15:03;99599.47;;;9.62;84.74
18819;BME280;9537;45.594;9.294;2024-03-08T01:16:05;99603.94;;;9.62;84.93
18819;BME280;9537;45.594;9.294;2024-03-08T01:17:06;99595.19;;;9.61;84.89
18819;BME280;9537;45.594;9.294;2024-03-08T01:18:07;99598.66;;;9.62;84.78
18819;BME280;9537;45.594;9.294;2024-03-08T01:19:08;99599.28;;;9.64;84.64
18819;BME280;9537;45.594;9.294;2024-03-08T01:20:10;99596.66;;;9.64;84.59
18819;BME280;9537;45.594;9.294;2024-03-08T01:21:13;99598.47;;;9.63;84.72
18819;BME280;9537;45.594;9.294;2024-03-08T01:22:13;99602.78;;;9.64;84.36
18819;BME280;9537;45.594;9.294;2024-03-08T01:23:15;99598.31;;;9.65;84.26
18819;BME280;9537;45.594;9.294;2024-03-08T01:24:16;99596.66;;;9.64;84.32
18819;BME280;9537;45.594;9.294;2024-03-08T01:25:18;99596.66;;;9.64;84.18
18819;BME280;9537;45.594;9.294;2024-03-08T01:26:20;99594.88;;;9.64;84.14
18819;BME280;9537;45.594;9.294;2024-03-08T01:27:21;99597.31;;;9.66;84.16
18819;BME280;9537;45.594;9.294;2024-03-08T01:28:23;99592.72;;;9.68;83.81
18819;BME280;9537;45.594;9.294;2024-03-08T01:29:25;99596.16;;;9.68;83.67
18819;BME280;9537;45.594;9.294;2024-03-08T01:30:25;99590.88;;;9.68;83.80
18819;BME280;9537;45.594;9.294;2024-03-08T01:31:27;99599.63;;;9.69;83.80
18819;BME280;9537;45.594;9.294;2024-03-08T01:32:29;99588.25;;;9.68;83.40
18819;BME280;9537;45.594;9.294;2024-03-08T01:33:30;99593.38;;;9.70;83.69
18819;BME280;9537;45.594;9.294;2024-03-08T01:34:31;99596.63;;;9.72;83.38
18819;BME280;9537;45.594;9.294;2024-03-08T01:35:33;99593.19;;;9.72;83.63
18819;BME280;9537;45.594;9.294;2024-03-08T01:36:34;99593.19;;;9.72;83.85
18819;BME280;9537;45.594;9.294;2024-03-08T01:37:37;99591.56;;;9.70;83.36
18819;BME280;9537;45.594;9.294;2024-03-08T01:38:38;99599.47;;;9.70;83.60
18819;BME280;9537;45.594;9.294;2024-03-08T01:39:39;99594.19;;;9.70;83.77
18819;BME280;9537;45.594;9.294;2024-03-08T01:40:40;99595.00;;;9.71;83.52
18819;BME280;9537;45.594;9.294;2024-03-08T01:41:42;99598.31;;;9.73;83.30
18819;BME280;9537;45.594;9.294;2024-03-08T01:42:44;99595.81;;;9.72;83.22
18819;BME280;9537;45.594;9.294;2024-03-08T01:43:45;99594.19;;;9.70;83.31
18819;BME280;9537;45.594;9.294;2024-03-08T01:44:46;99597.66;;;9.71;83.33
18819;BME280;9537;45.594;9.294;2024-03-08T01:45:48;99597.66;;;9.71;83.42
18819;BME280;9537;45.594;9.294;2024-03-08T01:46:49;99592.38;;;9.71;83.37
18819;BME280;9537;45.594;9.294;2024-03-08T01:47:51;99590.56;;;9.72;83.44
18819;BME280;9537;45.594;9.294;2024-03-08T01:48:53;99595.00;;;9.71;83.33
18819;BME280;9537;45.594;9.294;2024-03-08T01:49:53;99592.38;;;9.71;83.47
18819;BME280;9537;45.594;9.294;2024-03-08T01:50:56;99594.19;;;9.70;83.48
18819;BME280;9537;45.594;9.294;2024-03-08T01:51:56;99594.34;;;9.69;83.24
18819;BME280;9537;45.594;9.294;2024-03-08T01:52:58;99591.72;;;9.69;83.34
18819;BME280;9537;45.594;9.294;2024-03-08T01:54:02;99587.25;;;9.69;83.39
18819;BME280;9537;45.594;9.294;2024-03-08T01:55:05;99586.28;;;9.70;83.53
18819;BME280;9537;45.594;9.294;2024-03-08T01:56:08;99577.53;;;9.70;83.28
18819;BME280;9537;45.594;9.294;2024-03-08T01:57:10;99582.81;;;9.70;83.12
18819;BME280;9537;45.594;9.294;2024-03-08T01:58:12;99584.63;;;9.69;83.16
18819;BME280;9537;45.594;9.294;2024-03-08T01:59:15;99580.34;;;9.68;83.18
18819;BME280;9537;45.594;9.294;2024-03-08T02:00:18;99572.44;;;9.68;83.28
18819;BME280;9537;45.594;9.294;2024-03-08T02:01:21;99577.69;;;9.68;83.29
18819;BME280;9537;45.594;9.294;2024-03-08T02:02:22;99578.53;;;9.69;83.13
18819;BME280;9537;45.594;9.294;2024-03-08T02:03:23;99575.06;;;9.68;83.06
18819;BME280;9537;45.594;9.294;2024-03-08T02:04:25;99572.44;;;9.68;82.97
18819;BME280;9537;45.594;9.294;2024-03-08T02:05:26;99570.78;;;9.67;83.05
18819;BME280;9537;45.594;9.294;2024-03-08T02:06:28;99561.06;;;9.68;83.30
18819;BME280;9537;45.594;9.294;2024-03-08T02:07:28;99569.63;;;9.70;83.01
18819;BME280;9537;45.594;9.294;2024-03-08T02:08:30;99573.09;;;9.70;82.94
18819;BME280;9537;45.594;9.294;2024-03-08T02:09:31;99570.59;;;9.69;82.96
18819;BME280;9537;45.594;9.294;2024-03-08T02:10:32;99569.63;;;9.70;82.87
18819;BME280;9537;45.594;9.294;2024-03-08T02:11:34;99569.63;;;9.70;82.90
18819;BME280;9537;45.594;9.294;2024-03-08T02:12:37;99557.59;;;9.67;82.83
18819;BME280;9537;45.594;9.294;2024-03-08T02:13:39;99568.97;;;9.68;82.89
18819;BME280;9537;45.594;9.294;2024-03-08T02:14:40;99558.44;;;9.68;82.73
18819;BME280;9537;45.594;9.294;2024-03-08T02:15:53;99554.13;;;9.67;82.81
18819;BME280;9537;45.594;9.294;2024-03-08T02:16:54;99563.03;;;9.66;82.46
18819;BME280;9537;45.594;9.294;2024-03-08T02:17:58;99555.94;;;9.66;82.61
18819;BME280;9537;45.594;9.294;2024-03-08T02:18:58;99559.75;;;9.64;82.59
18819;BME280;9537;45.594;9.294;2024-03-08T02:20:00;99565.00;;;9.64;82.79
18819;BME280;9537;45.594;9.294;2024-03-08T02:21:04;99562.56;;;9.62;82.84
18819;BME280;9537;45.594;9.294;2024-03-08T02:22:06;99566.81;;;9.63;82.87
18819;BME280;9537;45.594;9.294;2024-03-08T02:23:07;99571.28;;;9.63;83.06
18819;BME280;9537;45.594;9.294;2024-03-08T02:24:08;99559.25;;;9.60;82.96
18819;BME280;9537;45.594;9.294;2024-03-08T02:25:09;99561.91;;;9.60;82.98
18819;BME280;9537;45.594;9.294;2024-03-08T02:26:11;99566.34;;;9.60;82.94
18819;BME280;9537;45.594;9.294;2024-03-08T02:27:11;99564.72;;;9.59;82.92
18819;BME280;9537;45.594;9.294;2024-03-08T02:28:13;99556.97;;;9.57;83.20
18819;BME280;9537;45.594;9.294;2024-03-08T02:29:14;99565.88;;;9.56;83.13
18819;BME280;9537;45.594;9.294;2024-03-08T02:30:16;99564.06;;;9.57;83.13
18819;BME280;9537;45.594;9.294;2024-03-08T02:31:17;99566.84;;;9.55;83.18
18819;BME280;9537;45.594;9.294;2024-03-08T02:32:19;99556.47;;;9.54;83.18
18819;BME280;9537;45.594;9.294;2024-03-08T02:33:20;99556.47;;;9.54;83.34
18819;BME280;9537;45.594;9.294;2024-03-08T02:34:22;99554.81;;;9.53;83.33
18819;BME280;9537;45.594;9.294;2024-03-08T02:35:22;99560.94;;;9.53;83.42
18819;BME280;9537;45.594;9.294;2024-03-08T02:36:25;99551.03;;;9.55;83.37
18819;BME280;9537;45.594;9.294;2024-03-08T02:37:26;99550.22;;;9.55;83.46
18819;BME280;9537;45.594;9.294;2024-03-08T02:38:28;99555.47;;;9.55;83.42
18819;BME280;9537;45.594;9.294;2024-03-08T02:39:29;99555.47;;;9.55;83.56
18819;BME280;9537;45.594;9.294;2024-03-08T02:40:32;99557.31;;;9.54;83.41
18819;BME280;9537;45.594;9.294;2024-03-08T02:41:33;99554.66;;;9.54;83.44
18819;BME280;9537;45.594;9.294;2024-03-08T02:42:34;99558.13;;;9.55;83.42
18819;BME280;9537;45.594;9.294;2024-03-08T02:43:35;99561.75;;;9.54;83.70
18819;BME280;9537;45.594;9.294;2024-03-08T02:44:36;99555.66;;;9.53;83.55
18819;BME280;9537;45.594;9.294;2024-03-08T02:45:37;99559.28;;;9.52;83.38
18819;BME280;9537;45.594;9.294;2024-03-08T02:46:38;99562.91;;;9.51;83.34
18819;BME280;9537;45.594;9.294;2024-03-08T02:47:40;99563.25;;;9.48;83.38
18819;BME280;9537;45.594;9.294;2024-03-08T02:48:41;99554.00;;;9.44;83.13
18819;BME280;9537;45.594;9.294;2024-03-08T02:49:43;99558.66;;;9.42;83.35
18819;BME280;9537;45.594;9.294;2024-03-08T02:50:43;99561.44;;;9.40;83.22
18819;BME280;9537;45.594;9.294;2024-03-08T02:51:47;99556.50;;;9.37;83.52
18819;BME280;9537;45.594;9.294;2024-03-08T02:52:47;99554.88;;;9.36;83.25
18819;BME280;9537;45.594;9.294;2024-03-08T02:53:49;99556.69;;;9.36;83.36
18819;BME280;9537;45.594;9.294;2024-03-08T02:54:52;99551.56;;;9.34;83.59
18819;BME280;9537;45.594;9.294;2024-03-08T02:55:53;99552.38;;;9.35;83.55
18819;BME280;9537;45.594;9.294;2024-03-08T02:56:55;99561.28;;;9.34;83.79
18819;BME280;9537;45.594;9.294;2024-03-08T02:57:56;99553.22;;;9.35;83.50
18819;BME280;9537;45.594;9.294;2024-03-08T02:58:59;99553.22;;;9.35;83.53
18819;BME280;9537;45.594;9.294;2024-03-08T03:00:00;99554.22;;;9.34;83.74
18819;BME280;9537;45.594;9.294;2024-03-08T03:01:01;99549.94;;;9.33;83.68
18819;BME280;9537;45.594;9.294;2024-03-08T03:02:03;99550.75;;;9.34;83.99
18819;BME280;9537;45.594;9.294;2024-03-08T03:03:04;99548.78;;;9.36;83.71
18819;BME280;9537;45.594;9.294;2024-03-08T03:04:05;99542.66;;;9.35;84.03
18819;BME280;9537;45.594;9.294;2024-03-08T03:05:07;99546.31;;;9.34;84.07
18819;BME280;9537;45.594;9.294;2024-03-08T03:06:09;99550.56;;;9.35;84.21
18819;BME280;9537;45.594;9.294;2024-03-08T03:07:13;99547.13;;;9.35;84.07
18819;BME280;9537;45.594;9.294;2024-03-08T03:08:14;99547.94;;;9.35;84.31
18819;BME280;9537;45.594;9.294;2024-03-08T03:09:17;99545.31;;;9.35;84.26
18819;BME280;9537;45.594;9.294;2024-03-08T03:10:23;99553.22;;;9.35;84.30
18819;BME280;9537;45.594;9.294;2024-03-08T03:11:24;99541.69;;;9.36;84.24
18819;BME280;9537;45.594;9.294;2024-03-08T03:12:26;99550.56;;;9.35;84.52
18819;BME280;9537;45.594;9.294;2024-03-08T03:13:26;99540.88;;;9.36;84.27
18819;BME280;9537;45.594;9.294;2024-03-08T03:14:29;99545.97;;;9.37;84.05
18819;BME280;9537;45.594;9.294;2024-03-08T03:15:30;99543.31;;;9.37;84.21
18819;BME280;9537;45.594;9.294;2024-03-08T03:16:32;99545.31;;;9.35;84.30
18819;BME280;9537;45.594;9.294;2024-03-08T03:17:32;99553.38;;;9.34;84.02
18819;BME280;9537;45.594;9.294;2024-03-08T03:18:34;99545.47;;;9.34;84.53
18819;BME280;9537;45.594;9.294;2024-03-08T03:19:35;99543.00;;;9.32;84.47
18819;BME280;9537;45.594;9.294;2024-03-08T03:20:37;99545.47;;;9.34;84.47
18819;BME280;9537;45.594;9.294;2024-03-08T03:21:40;99546.31;;;9.34;84.59
18819;BME280;9537;45.594;9.294;2024-03-08T03:22:44;99545.47;;;9.34;84.71
18819;BME280;9537;45.594;9.294;2024-03-08T03:23:47;99543.81;;;9.33;84.84
18819;BME280;9537;45.594;9.294;2024-03-08T03:24:49;99546.63;;;9.31;84.91
18819;BME280;9537;45.594;9.294;2024-03-08T03:25:51;99545.81;;;9.31;84.74
18819;BME280;9537;45.594;9.294;2024-03-08T03:26:52;99541.38;;;9.31;84.72
18819;BME280;9537;45.594;9.294;2024-03-08T03:27:55;99543.00;;;9.32;84.94
18819;BME280;9537;45.594;9.294;2024-03-08T03:28:56;99543.34;;;9.29;84.69
18819;BME280;9537;45.594;9.294;2024-03-08T03:30:01;99547.78;;;9.29;84.84
18819;BME280;9537;45.594;9.294;2024-03-08T03:31:21;99549.59;;;9.28;84.80
18819;BME280;9537;45.594;9.294;2024-03-08T03:32:24;99550.59;;;9.27;84.88
18819;BME280;9537;45.594;9.294;2024-03-08T03:33:24;99548.94;;;9.26;84.78
18819;BME280;9537;45.594;9.294;2024-03-08T03:34:25;99543.66;;;9.26;84.46
18819;BME280;9537;45.594;9.294;2024-03-08T03:35:27;99550.28;;;9.22;84.76
18819;BME280;9537;45.594;9.294;2024-03-08T03:36:28;99552.25;;;9.20;84.51
18819;BME280;9537;45.594;9.294;2024-03-08T03:37:30;99549.13;;;9.16;84.65
18819;BME280;9537;45.594;9.294;2024-03-08T03:38:32;99553.88;;;9.13;84.40
18819;BME280;9537;45.594;9.294;2024-03-08T03:39:34;99555.88;;;9.11;84.76
18819;BME280;9537;45.594;9.294;2024-03-08T03:40:40;99549.13;;;9.08;85.19
18819;BME280;9537;45.594;9.294;2024-03-08T03:41:41;99552.09;;;9.05;85.24
18819;BME280;9537;45.594;9.294;2024-03-08T03:42:45;99555.72;;;9.04;85.48
18819;BME280;9537;45.594;9.294;2024-03-08T03:43:46;99554.88;;;9.03;86.04
18819;BME280;9537;45.594;9.294;2024-03-08T03:44:49;99553.25;;;9.02;85.99
18819;BME280;9537;45.594;9.294;2024-03-08T03:45:50;99552.75;;;8.99;86.32
18819;BME280;9537;45.594;9.294;2024-03-08T03:46:52;99561.63;;;8.98;86.52
18819;BME280;9537;45.594;9.294;2024-03-08T03:47:52;99559.81;;;8.98;86.43
18819;BME280;9537;45.594;9.294;2024-03-08T03:48:54;99561.50;;;8.99;86.94
18819;BME280;9537;45.594;9.294;2024-03-08T03:49:55;99553.59;;;8.99;86.53
18819;BME280;9537;45.594;9.294;2024-03-08T03:51:02;99554.06;;;9.03;86.64
18819;BME280;9537;45.594;9.294;2024-03-08T03:52:03;99556.56;;;9.05;86.25
18819;BME280;9537;45.594;9.294;2024-03-08T03:53:05;99559.19;;;9.05;86.66
18819;BME280;9537;45.594;9.294;2024-03-08T03:54:09;99553.91;;;9.05;86.39
18819;BME280;9537;45.594;9.294;2024-03-08T03:55:11;99560.16;;;9.03;86.39
18819;BME280;9537;45.594;9.294;2024-03-08T03:56:12;99551.28;;;9.05;86.46
18819;BME280;9537;45.594;9.294;2024-03-08T03:57:13;99551.09;;;9.06;86.42
18819;BME280;9537;45.594;9.294;2024-03-08T03:58:14;99551.91;;;9.07;86.70
18819;BME280;9537;45.594;9.294;2024-03-08T03:59:16;99547.50;;;9.07;86.46
18819;BME280;9537;45.594;9.294;2024-03-08T04:00:17;99550.78;;;9.09;86.55
18819;BME280;9537;45.594;9.294;2024-03-08T04:01:19;99554.22;;;9.10;86.81
18819;BME280;9537;45.594;9.294;2024-03-08T04:02:20;99555.06;;;9.10;86.84
18819;BME280;9537;45.594;9.294;2024-03-08T04:03:21;99552.25;;;9.12;86.68
18819;BME280;9537;45.594;9.294;2024-03-08T04:04:22;99555.72;;;9.12;86.44
18819;BME280;9537;45.594;9.294;2024-03-08T04:05:25;99553.88;;;9.13;86.84
18819;BME280;9537;45.594;9.294;2024-03-08T04:06:25;99551.09;;;9.14;86.62
18819;BME280;9537;45.594;9.294;2024-03-08T04:07:27;99555.22;;;9.17;86.59
18819;BME280;9537;45.594;9.294;2024-03-08T04:08:28;99553.41;;;9.17;86.96
18819;BME280;9537;45.594;9.294;2024-03-08T04:09:31;99547.47;;;9.15;86.75
18819;BME280;9537;45.594;9.294;2024-03-08T04:10:31;99552.59;;;9.17;86.69
18819;BME280;9537;45.594;9.294;2024-03-08T04:11:33;99551.75;;;9.16;86.68
18819;BME280;9537;45.594;9.294;2024-03-08T04:12:34;99547.47;;;9.15;86.77
18819;BME280;9537;45.594;9.294;2024-03-08T04:13:35;99544.00;;;9.15;87.05
18819;BME280;9537;45.594;9.294;2024-03-08T04:14:37;99551.91;;;9.15;87.04
18819;BME280;9537;45.594;9.294;2024-03-08T04:15:40;99547.66;;;9.14;87.21
18819;BME280;9537;45.594;9.294;2024-03-08T04:16:40;99551.09;;;9.14;87.22
18819;BME280;9537;45.594;9.294;2024-03-08T04:17:42;99557.03;;;9.16;87.06
18819;BME280;9537;45.594;9.294;2024-03-08T04:18:43;99546.84;;;9.13;87.15
18819;BME280;9537;45.594;9.294;2024-03-08T04:19:45;99550.28;;;9.14;87.09
18819;BME280;9537;45.594;9.294;2024-03-08T04:20:45;99553.88;;;9.13;86.97
18819;BME280;9537;45.594;9.294;2024-03-08T04:21:47;99549.63;;;9.12;86.95
18819;BME280;9537;45.594;9.294;2024-03-08T04:22:48;99549.63;;;9.12;86.91
18819;BME280;9537;45.594;9.294;2024-03-08T04:23:49;99545.34;;;9.11;86.71
18819;BME280;9537;45.594;9.294;2024-03-08T04:24:51;99550.63;;;9.11;87.10
18819;BME280;9537;45.594;9.294;2024-03-08T04:25:53;99546.16;;;9.11;86.84
18819;BME280;9537;45.594;9.294;2024-03-08T04:26:54;99548.31;;;9.08;86.76
18819;BME280;9537;45.594;9.294;2024-03-08T04:27:55;99551.28;;;9.05;86.79
18819;BME280;9537;45.594;9.294;2024-03-08T04:28:56;99555.56;;;9.06;86.78
18819;BME280;9537;45.594;9.294;2024-03-08T04:29:58;99545.84;;;9.06;86.98
18819;BME280;9537;45.594;9.294;2024-03-08T04:31:00;99541.72;;;9.03;86.90
18819;BME280;9537;45.594;9.294;2024-03-08T04:32:03;99553.06;;;9.04;86.77
18819;BME280;9537;45.594;9.294;2024-03-08T04:33:04;99546.16;;;9.03;87.24
18819;BME280;9537;45.594;9.294;2024-03-08T04:34:06;99552.75;;;8.99;86.77
18819;BME280;9537;45.594;9.294;2024-03-08T04:35:07;99552.75;;;8.99;87.29
18819;BME280;9537;45.594;9.294;2024-03-08T04:36:09;99552.75;;;8.99;87.18
18819;BME280;9537;45.594;9.294;2024-03-08T04:37:13;99552.91;;;8.97;87.11
18819;BME280;9537;45.594;9.294;2024-03-08T04:38:17;99545.34;;;8.94;87.34
18819;BME280;9537;45.594;9.294;2024-03-08T04:39:17;99549.78;;;8.94;87.52
18819;BME280;9537;45.594;9.294;2024-03-08T04:40:20;99548.97;;;8.93;87.56
18819;BME280;9537;45.594;9.294;2024-03-08T04:41:21;99554.25;;;8.93;87.18
18819;BME280;9537;45.594;9.294;2024-03-08T04:42:24;99541.91;;;8.94;87.08
18819;BME280;9537;45.594;9.294;2024-03-08T04:43:25;99546.34;;;8.93;87.41
18819;BME280;9537;45.594;9.294;2024-03-08T04:44:30;99545.53;;;8.93;87.68
18819;BME280;9537;45.594;9.294;2024-03-08T04:45:31;99547.97;;;8.94;87.33
18819;BME280;9537;45.594;9.294;2024-03-08T04:46:34;99540.91;;;8.95;87.65
18819;BME280;9537;45.594;9.294;2024-03-08T04:47:35;99547.16;;;8.94;87.82
18819;BME280;9537;45.594;9.294;2024-03-08T04:48:37;99545.34;;;8.94;87.91
18819;BME280;9537;45.594;9.294;2024-03-08T04:49:38;99540.91;;;8.95;87.86
18819;BME280;9537;45.594;9.294;2024-03-08T04:50:39;99547.31;;;8.92;87.59
18819;BME280;9537;45.594;9.294;2024-03-08T04:51:40;99544.69;;;8.92;87.76
18819;BME280;9537;45.594;9.294;2024-03-08T04:52:42;99536.78;;;8.92;87.77
18819;BME280;9537;45.594;9.294;2024-03-08T04:53:42;99542.91;;;8.93;88.13
18819;BME280;9537;45.594;9.294;2024-03-08T04:54:44;99554.25;;;8.93;88.07
18819;BME280;9537;45.594;9.294;2024-03-08T04:55:46;99552.59;;;8.92;88.41
18819;BME280;9537;45.594;9.294;2024-03-08T04:56:48;99554.56;;;8.90;88.09
18819;BME280;9537;45.594;9.294;2024-03-08T04:57:49;99552.91;;;8.89;88.40
18819;BME280;9537;45.594;9.294;2024-03-08T04:58:50;99554.56;;;8.90;88.05
18819;BME280;9537;45.594;9.294;2024-03-08T04:59:51;99550.94;;;8.91;87.98
18819;BME280;9537;45.594;9.294;2024-03-08T05:00:53;99553.44;;;8.93;88.15
18819;BME280;9537;45.594;9.294;2024-03-08T05:01:54;99554.25;;;8.93;88.13
18819;BME280;9537;45.594;9.294;2024-03-08T05:02:56;99552.59;;;8.92;88.17
18819;BME280;9537;45.594;9.294;2024-03-08T05:03:57;99549.13;;;8.92;88.10
18819;BME280;9537;45.594;9.294;2024-03-08T05:04:58;99551.75;;;8.92;87.81
18819;BME280;9537;45.594;9.294;2024-03-08T05:05:59;99549.94;;;8.92;87.78
18819;BME280;9537;45.594;9.294;2024-03-08T05:07:01;99553.59;;;8.91;87.78
18819;BME280;9537;45.594;9.294;2024-03-08T05:08:03;99555.22;;;8.92;88.32
18819;BME280;9537;45.594;9.294;2024-03-08T05:09:05;99554.41;;;8.92;87.89
18819;BME280;9537;45.594;9.294;2024-03-08T05:10:13;99554.41;;;8.92;88.29
18819;BME280;9537;45.594;9.294;2024-03-08T05:11:19;99559.50;;;8.93;88.60
18819;BME280;9537;45.594;9.294;2024-03-08T05:12:20;99557.50;;;8.95;88.38
18819;BME280;9537;45.594;9.294;2024-03-08T05:13:22;99553.09;;;8.96;88.75
18819;BME280;9537;45.594;9.294;2024-03-08T05:14:23;99552.91;;;8.97;88.71
18819;BME280;9537;45.594;9.294;2024-03-08T05:15:25;99550.28;;;8.97;89.02
18819;BME280;9537;45.594;9.294;2024-03-08T05:16:26;99556.22;;;8.99;89.09
18819;BME280;9537;45.594;9.294;2024-03-08T05:17:27;99552.75;;;8.99;88.99
18819;BME280;9537;45.594;9.294;2024-03-08T05:18:28;99563.31;;;8.99;89.44
18819;BME280;9537;45.594;9.294;2024-03-08T05:19:32;99559.00;;;8.98;88.92
18819;BME280;9537;45.594;9.294;2024-03-08T05:20:33;99560.66;;;8.99;89.15
18819;BME280;9537;45.594;9.294;2024-03-08T05:21:37;99557.84;;;9.00;89.07
18819;BME280;9537;45.594;9.294;2024-03-08T05:22:38;99557.69;;;9.02;89.15
18819;BME280;9537;45.594;9.294;2024-03-08T05:23:40;99555.06;;;9.02;89.18
18819;BME280;9537;45.594;9.294;2024-03-08T05:24:41;99560.97;;;9.04;89.46
18819;BME280;9537;45.594;9.294;2024-03-08T05:25:43;99556.56;;;9.05;89.51
18819;BME280;9537;45.594;9.294;2024-03-08T05:26:46;99561.50;;;9.08;89.52
18819;BME280;9537;45.594;9.294;2024-03-08T05:27:47;99556.03;;;9.09;89.69
18819;BME280;9537;45.594;9.294;2024-03-08T05:28:48;99561.16;;;9.11;89.32
18819;BME280;9537;45.594;9.294;2024-03-08T05:29:49;99563.47;;;9.14;89.36
18819;BME280;9537;45.594;9.294;2024-03-08T05:30:51;99556.38;;;9.14;89.92
18819;BME280;9537;45.594;9.294;2024-03-08T05:31:52;99564.13;;;9.16;89.77
18819;BME280;9537;45.594;9.294;2024-03-08T05:32:53;99569.22;;;9.17;89.46
18819;BME280;9537;45.594;9.294;2024-03-08T05:33:54;99563.78;;;9.19;89.50
18819;BME280;9537;45.594;9.294;2024-03-08T05:34:56;99557.53;;;9.20;89.58
18819;BME280;9537;45.594;9.294;2024-03-08T05:35:57;99560.97;;;9.20;89.66